Estación Meteorológica Peña el Pijo (Robertgarden) [ 02/03/23 03:29:10 CET ]

Fecha Hora Presion(HPa) Temp (°C) Humedad % Rocio (°C) Viento ( m/s) Direccion Lluvia 1Hora(mm) Lluvia 24H(mm) LLuvia Total(mm)
2012-Mar-16 01:01:12 1017.400 2.4 55 -5.7         153.32
2012-Mar-16 02:06:43 1017.000 0.9 57 -6.7         153.32
2012-Mar-16 03:04:21 1016.600 -0.1 60 -6.9         153.32
2012-Mar-16 04:01:46 1016.100 -0.8 62 -7.2         153.32
2012-Mar-16 05:04:16 1015.900 -0.9 65 -6.7         153.32
2012-Mar-16 06:01:16 1015.600 -0.2 63 -6.4         153.32
2012-Mar-16 07:01:13 1015.700 -1.1 65 -6.9         153.32
2012-Mar-16 08:01:12 1016.200 -1.2 65 -7.0         153.32
2012-Mar-16 09:01:13 1016.000 5.9 55 -2.5         153.32
2012-Mar-16 10:01:15 1015.700 12.1 34 -3.4         153.32
2012-Mar-16 11:01:16 1015.500 16.8 26 -3.0         153.32
2012-Mar-16 12:01:13 1015.000 18.4 24 -2.8         153.32
2012-Mar-16 13:01:15 1014.200 19.8 21 -3.2         153.32
2012-Mar-16 14:01:13 1013.700 21.6 19 -3.2         153.32
2012-Mar-16 15:01:16 1013.100 22.6 16 -5.1 1.3 SSW     153.32
2012-Mar-16 16:01:18 1013.000 21.6 19 -3.2 0.5 NW     153.32
2012-Mar-16 17:01:14 1012.800 18.7 26 -1.4         153.32
2012-Mar-16 18:01:17 1013.200 17.3 30 -0.4 1.3 NW     153.32
2012-Mar-16 19:01:16 1013.800 13.9 36 -1.1         153.32
2012-Mar-16 20:01:10 1014.800 11.4 45 -0.2         153.32
2012-Mar-16 21:01:21 1015.400 9.1 52 -0.3         153.32
2012-Mar-16 22:01:13 1015.900 7.4 60 0.2         153.32
2012-Mar-16 23:01:14 1016.200 6.6 66 0.7         153.32

Temperatura Máxima:22°    Temperatura Mínima:-1°
Presión Máxima:1017.400 Hpa    Presión Mínima:1012.800 Hpa


Volver